x

Cape San Martin - 55nm West Nw Of Morro Bay, Ca (46028) Wave Buoy

4:50pm - Thu 21st Aug 2014 All times are PDT. -7 hours from GMT.

  • Sig Wave height 3.6ft
  • Swell Direction
  • Peak Period 9s
  • Average Period 7s
  • Wind
    7mph, 9mph gusts
  • Sea Temp 65°f
  • Air Temp 62°f
  • Sea Pressure 1013.8mb
  • Cape San Martin - 55nm West Nw Of Morro Bay, Ca
  • Cape San Martin - 55nm West Nw Of Morro Bay, Ca

More Historic Weather Station data

Upgrade to MSW Pro to gain access to the past 30 days of data for over 8000 Wavebouys and Weather Stations around the globe.

Join Pro

Comparision Forecast

View Surf forecast
   
Thu 08/21 4:50pm 3.5ft 9s 7s 7 9 mph 1013.8mb 65f 62f
3:50pm 3.5ft 10s 7s 4 9 mph 1014.3mb 66f 62f
2:50pm 3.5ft 8s 7s 4 7 mph 1014.8mb 66f 62f
1:50pm 4ft 14s 7s 2 4 mph 1015.2mb 65f 62f
12:50pm 4.5ft 8s 7s 4 7 mph 1015.2mb 65f 61f
11:50am 4ft 10s 7s 4 7 mph 1015.1mb 65f 61f
10:50am 4ft 14s 7s 2 4 mph 1015mb 64f 62f
9:50am 4ft 8s 7s 4 7 mph 1014.7mb 64f 61f
8:50am 4ft 8s 7s 2 4 mph 1014.7mb 64f 61f
7:50am 4ft 8s 7s 2 7 mph 1014.3mb 64f 61f
6:50am 4ft 8s 7s 2 4 mph 1013.8mb 64f 61f
5:50am 4.5ft 7s 7s  -  2 mph 1013.3mb 64f 60f
4:50am 4ft 8s 7s 2 4 mph 1013.2mb 64f 60f
3:50am  -   -   -  2 4 mph 1013.4mb 64f 60f
2:50am 4.5ft 8s 7s 4 7 mph 1013.3mb 64f 61f
1:50am 4.5ft 8s 7s 7 9 mph 1013.3mb 65f 61f
12:50am 4.5ft 8s 7s 4
mph
1013.6mb 65f 62f
Wed 08/20 11:50pm 5ft 8s 7s 7 11 mph 1013.7mb 65f 62f
10:50pm 4.5ft 8s 7s 7 9 mph 1013.7mb 65f 62f
9:50pm  -   -   -  11
mph
- - 62f
8:50pm 4ft 8s 7s 7 9 mph 1013.3mb 66f 64f
7:50pm 4.5ft 8s 8s 7
mph
1013mb 66f 63f
6:50pm 4ft 8s 7s 7
mph
1012.8mb 66f 64f
5:50pm 3.5ft 8s 7s 4 7 mph 1013.1mb 67f 64f
4:50pm 3.5ft 8s 7s 2 4 mph 1013.3mb 67f 65f
3:50pm 4ft 8s 8s 2 4 mph 1013.5mb 65f 64f
2:50pm 3.5ft 8s 7s 2 4 mph 1014.1mb 65f 64f
1:50pm 4ft 9s 8s 2 4 mph 1014.5mb 65f 64f
12:50pm 4.5ft 9s 7s 7
mph
1014.7mb 65f 63f
11:50am 4ft 9s 7s 7 9 mph 1014.7mb 64f 63f
10:50am 4.5ft 8s 7s 9 11 mph 1014.5mb 64f 63f
9:50am 4.5ft 8s 7s 9 11 mph 1014.1mb 64f 63f
8:50am 4.5ft 8s 8s 9 11 mph 1013.6mb 64f 63f
7:50am 4.5ft 8s 8s 7 9 mph 1013mb 64f 63f
6:50am 4.5ft 8s 8s 4 9 mph 1012.4mb 64f 63f
5:50am 4.5ft 8s 8s 7 9 mph 1011.9mb 64f 63f
4:50am 4.5ft 8s 8s 9 11 mph 1011.7mb 64f 63f
3:50am 4.5ft 9s 8s 9
mph
1011.5mb 64f 63f
2:50am 4ft 8s 7s 9
mph
1011.4mb 64f 63f
1:50am 3.5ft 8s 7s  -  mph 1011.7mb 64f 63f
12:50am 3.5ft 14s 7s  -  2 mph 1011.9mb 64f 64f
Tue 08/19 11:50pm 3.5ft 7s 7s 2 4 mph 1011.5mb 64f 64f
10:50pm 4ft 8s 7s  -  2 mph 1011.6mb 65f 63f
9:50pm 3.5ft 8s 7s 4
mph
1011.8mb 65f 64f
8:50pm 4ft 16s 7s 2 4 mph 1011.4mb 65f 63f
7:50pm 4ft 15s 7s 2 4 mph 1010.9mb 65f 63f
6:50pm 4.5ft 15s 7s 2 4 mph 1011.2mb 65f 63f
5:50pm 4.5ft 15s 7s 2 4 mph 1011.3mb 65f 63f
4:50pm 4.5ft 8s 7s 2
mph
1011.5mb 65f 63f
3:50pm 4.5ft 15s 6s 4 7 mph 1011.6mb 65f 62f
2:50pm 4.5ft 7s 6s 2 4 mph 1012.2mb 65f 62f
1:50pm 4.5ft 8s 6s 4 7 mph 1012.6mb 64f 61f
12:50pm 5ft 8s 6s 9 11 mph 1012.7mb 64f 61f
11:50am 5ft 8s 6s 9 11 mph 1012.9mb 64f 61f
10:50am 5ft 9s 6s 7 9 mph 1013mb 64f 61f
9:50am 5ft 8s 6s 7 9 mph 1012.6mb 64f 61f
8:50am 5ft 8s 6s 9 11 mph 1012.3mb 64f 61f
7:50am 5ft 8s 6s 13 16 mph 1011.9mb 64f 61f
6:50am 6ft 8s 6s 13 16 mph 1011.6mb 64f 61f
5:50am 6ft 9s 6s 16 20 mph 1011.2mb 64f 60f
4:50am 6ft 8s 6s 18 20 mph 1011.1mb 64f 61f
3:50am  -   -   -  18 22 mph 1011mb 64f 61f
2:50am  -   -   -  18
mph
1011mb - 61f
1:50am  -   -   -  18 22 mph 1011.2mb 64f 61f
12:50am 7ft 8s 6s 18 22 mph 1011.2mb 64f 60f
Mon 08/18 11:50pm 7ft 9s 6s 20 25 mph 1011.2mb 64f 60f
10:50pm 6.5ft 8s 6s 20 22 mph 1011mb 64f 60f
9:50pm 7ft 8s 6s 20 25 mph 1011.2mb 64f 60f
8:50pm 7ft 9s 6s 20 25 mph 1010.7mb 64f 61f
7:50pm  -   -   -  20
mph
- - 61f
6:50pm 5.5ft 8s 6s 20 25 mph 1010.5mb 64f 61f
5:50pm 5.5ft 8s 6s 20 25 mph 1010.6mb 64f 61f
4:50pm 5ft 11s 5s 18 22 mph 1010.5mb 64f 61f
3:50pm 4.5ft 6s 5s 18 20 mph 1011.2mb 64f 61f
2:50pm 4.5ft 16s 5s 16 18 mph 1011.8mb 64f 61f
1:50pm 4.5ft 11s 6s 16 18 mph 1012.1mb 64f 61f
12:50pm 4.5ft 16s 6s 16 18 mph 1012.5mb 64f 61f
11:50am  -   -   -  11 16 mph 1013.1mb 64f 60f
10:50am 4.5ft 11s 6s 16 20 mph 1012.8mb 64f 60f
9:50am 4.5ft 11s 5s 18 20 mph 1012.8mb 64f 59f
8:50am  -   -   -  13
mph
- - 59f
7:50am 5ft 12s 6s 16 18 mph 1012.7mb 64f 59f
6:50am 5ft 6s 6s 16 20 mph 1012.2mb 64f 60f
5:50am 5ft 7s 6s 18 22 mph 1012mb 64f 60f
4:50am  -   -   -  20 25 mph 1012mb 64f 60f
2:50am 6ft 15s 6s 20 25 mph 1012.5mb 64f 60f
1:50am 6ft 7s 5s 20 25 mph 1012.6mb 64f 60f
12:50am 6.5ft 6s 6s 22 27 mph 1012.6mb 64f 60f